createdAt,value
2018-03-08T00:01:04.482Z,40.87
2018-03-08T00:03:37.536Z,37.93
2018-03-08T00:06:04.991Z,40.53
2018-03-08T00:08:32.606Z,38.57
2018-03-08T00:11:00.004Z,35.87
2018-03-08T00:13:27.443Z,39.57
2018-03-08T00:16:07.114Z,37.80
2018-03-08T00:18:34.712Z,34.27
2018-03-08T00:21:02.907Z,37.50
2018-03-08T00:23:30.329Z,34.40
2018-03-08T00:26:02.397Z,35.00
2018-03-08T00:28:29.946Z,33.53
2018-03-08T00:30:57.382Z,37.17
2018-03-08T00:33:24.833Z,35.50
2018-03-08T00:35:52.261Z,37.87
2018-03-08T00:38:19.759Z,37.37
2018-03-08T00:40:47.330Z,39.53
2018-03-08T00:43:14.780Z,38.17
2018-03-08T00:45:42.204Z,36.37
2018-03-08T00:51:05.430Z,33.93
2018-03-08T00:53:32.935Z,29.07
2018-03-08T00:56:00.332Z,31.57
2018-03-08T00:58:27.835Z,30.50
2018-03-08T01:00:55.354Z,34.33
2018-03-08T01:03:22.772Z,31.80
2018-03-08T01:05:50.228Z,32.27
2018-03-08T01:08:17.700Z,35.13
2018-03-08T01:10:45.139Z,34.23
2018-03-08T01:13:17.254Z,31.70
2018-03-08T01:15:44.656Z,33.17
2018-03-08T01:18:12.093Z,33.27
2018-03-08T01:20:39.549Z,30.07
2018-03-08T01:23:07.069Z,30.93
2018-03-08T01:25:34.536Z,32.50
2018-03-08T01:28:02.105Z,34.07
2018-03-08T01:30:29.553Z,30.93
2018-03-08T01:32:57.024Z,34.90
2018-03-08T01:35:30.078Z,30.30
2018-03-08T01:37:57.475Z,31.10
2018-03-08T01:40:24.936Z,29.10
2018-03-08T01:42:52.525Z,30.40
2018-03-08T01:45:19.953Z,27.97
2018-03-08T01:47:47.413Z,27.83
2018-03-08T01:50:14.835Z,30.17
2018-03-08T01:52:42.240Z,33.17
2018-03-08T01:55:09.735Z,27.27
2018-03-08T01:57:42.787Z,31.03
2018-03-08T02:00:10.791Z,30.47
2018-03-08T02:02:38.222Z,28.93
2018-03-08T02:05:05.701Z,31.17
2018-03-08T02:07:33.109Z,28.30
2018-03-08T02:10:00.602Z,28.50
2018-03-08T02:12:28.058Z,26.80
2018-03-08T02:14:55.689Z,28.00
2018-03-08T02:17:23.166Z,25.00
2018-03-08T02:19:50.652Z,25.87
2018-03-08T02:22:18.079Z,27.70
2018-03-08T02:24:45.509Z,26.83
2018-03-08T02:27:13.026Z,27.20
2018-03-08T02:29:40.483Z,24.90
2018-03-08T02:32:07.960Z,26.93
2018-03-08T02:34:35.448Z,27.30
2018-03-08T02:37:02.943Z,27.40
2018-03-08T02:39:30.425Z,25.80
2018-03-08T02:41:57.917Z,28.40
2018-03-08T02:44:30.911Z,28.60
2018-03-08T02:47:00.922Z,24.10
2018-03-08T02:49:28.427Z,28.70
2018-03-08T02:51:55.897Z,28.97
2018-03-08T02:54:23.359Z,22.43
2018-03-08T02:56:50.791Z,28.30
2018-03-08T02:59:18.298Z,27.37
2018-03-08T03:01:45.723Z,25.67
2018-03-08T03:04:13.124Z,28.17
2018-03-08T03:06:40.636Z,29.20
2018-03-08T03:09:11.625Z,26.33
2018-03-08T03:11:39.091Z,27.30
2018-03-08T03:14:06.732Z,26.77
2018-03-08T03:16:34.208Z,26.00
2018-03-08T03:19:01.709Z,26.27
2018-03-08T03:21:29.170Z,26.33
2018-03-08T03:23:56.739Z,30.20
2018-03-08T03:26:24.230Z,30.07
2018-03-08T03:28:51.660Z,27.43
2018-03-08T03:31:24.652Z,24.70
2018-03-08T03:33:57.569Z,28.03
2018-03-08T03:36:30.651Z,29.17
2018-03-08T03:39:06.496Z,27.13
2018-03-08T03:41:33.961Z,29.17
2018-03-08T03:44:01.406Z,26.57
2018-03-08T03:46:28.924Z,29.33
2018-03-08T03:48:56.371Z,28.20
2018-03-08T03:51:23.879Z,29.20
2018-03-08T03:53:51.728Z,32.90
2018-03-08T03:56:19.229Z,26.93
2018-03-08T03:58:46.651Z,29.13
2018-03-08T04:01:14.765Z,29.63
2018-03-08T04:03:42.234Z,27.60
2018-03-08T04:06:09.745Z,28.67
2018-03-08T04:08:37.312Z,33.07
2018-03-08T04:11:04.778Z,27.90
2018-03-08T04:13:32.261Z,30.83
2018-03-08T04:15:59.768Z,29.47
2018-03-08T04:18:27.312Z,31.63
2018-03-08T04:20:54.903Z,31.73
2018-03-08T04:23:25.917Z,33.67
2018-03-08T04:25:53.365Z,29.93
2018-03-08T04:28:20.877Z,31.60
2018-03-08T04:30:48.526Z,33.67
2018-03-08T04:33:16.017Z,39.73
2018-03-08T04:35:43.578Z,35.13
2018-03-08T04:38:11.055Z,41.17
2018-03-08T04:40:38.525Z,35.73
2018-03-08T04:43:06.016Z,34.77
2018-03-08T04:45:34.137Z,37.07
2018-03-08T04:48:01.663Z,36.53
2018-03-08T04:50:29.297Z,40.83
2018-03-08T04:52:56.769Z,35.00
2018-03-08T04:55:24.241Z,41.27
2018-03-08T04:57:51.760Z,45.27
2018-03-08T05:00:19.229Z,37.37
2018-03-08T05:02:47.027Z,36.50
2018-03-08T05:05:14.489Z,29.80
2018-03-08T05:07:44.479Z,29.43
2018-03-08T05:10:11.998Z,29.07
2018-03-08T05:12:39.448Z,28.43
2018-03-08T05:15:06.959Z,29.60
2018-03-08T05:17:34.513Z,31.03
2018-03-08T05:20:02.103Z,30.37
2018-03-08T05:22:30.268Z,33.77
2018-03-08T05:24:57.722Z,34.50
2018-03-08T05:27:25.174Z,26.97
2018-03-08T05:29:58.237Z,29.17
2018-03-08T05:32:30.253Z,26.30
2018-03-08T05:34:57.831Z,27.37
2018-03-08T05:37:25.310Z,29.03
2018-03-08T05:39:53.814Z,30.87
2018-03-08T05:42:21.431Z,26.47
2018-03-08T05:44:48.852Z,31.30
2018-03-08T05:47:16.767Z,27.10
2018-03-08T05:49:44.250Z,30.40
2018-03-08T05:52:11.705Z,29.67
2018-03-08T05:54:44.705Z,28.40
2018-03-08T05:57:12.758Z,31.27
2018-03-08T05:59:40.235Z,26.70
2018-03-08T06:02:07.697Z,27.80
2018-03-08T06:04:35.148Z,29.33
2018-03-08T06:07:02.621Z,26.33
2018-03-08T06:09:30.088Z,33.77
2018-03-08T06:11:57.600Z,30.77
2018-03-08T06:14:25.057Z,29.03
2018-03-08T06:16:52.509Z,31.07
2018-03-08T06:19:25.587Z,31.87
2018-03-08T06:21:52.973Z,30.87
2018-03-08T06:24:20.435Z,31.23
2018-03-08T06:26:47.930Z,28.73
2018-03-08T06:29:15.458Z,27.17
2018-03-08T06:31:42.873Z,26.93
2018-03-08T06:34:10.349Z,25.27
2018-03-08T06:36:37.910Z,28.67
2018-03-08T06:39:05.325Z,27.13
2018-03-08T06:41:38.402Z,34.67
2018-03-08T06:44:05.861Z,25.03
2018-03-08T06:46:33.311Z,25.87
2018-03-08T06:49:00.864Z,25.30
2018-03-08T06:51:28.300Z,26.43
2018-03-08T06:53:55.902Z,25.23
2018-03-08T06:56:23.332Z,26.53
2018-03-08T06:58:50.925Z,26.47
2018-03-08T07:01:18.337Z,25.63
2018-03-08T07:03:51.457Z,25.13
2018-03-08T07:06:18.881Z,24.60
2018-03-08T07:08:46.472Z,29.30
2018-03-08T07:11:13.908Z,25.67
2018-03-08T07:13:41.405Z,27.57
2018-03-08T07:16:08.976Z,23.43
2018-03-08T07:18:36.476Z,29.87
2018-03-08T07:21:03.876Z,25.47
2018-03-08T07:23:31.404Z,24.50
2018-03-08T07:25:58.817Z,25.63
2018-03-08T07:28:26.743Z,21.50
2018-03-08T07:30:54.137Z,24.70
2018-03-08T07:33:21.633Z,25.23
2018-03-08T07:35:49.101Z,25.80
2018-03-08T07:38:16.507Z,23.13
2018-03-08T07:40:43.949Z,25.00
2018-03-08T07:43:11.422Z,25.10
2018-03-08T07:45:38.873Z,22.30
2018-03-08T07:48:06.292Z,22.70
2018-03-08T07:50:37.234Z,21.17
2018-03-08T07:53:04.853Z,22.20
2018-03-08T07:55:32.284Z,24.03
2018-03-08T07:57:59.788Z,24.63
2018-03-08T08:00:27.249Z,21.47
2018-03-08T08:02:54.681Z,21.33
2018-03-08T08:05:27.944Z,26.73
2018-03-08T08:11:06.566Z,19.43
2018-03-08T08:13:34.022Z,23.90
2018-03-08T08:16:01.470Z,21.07
2018-03-08T08:18:28.864Z,19.40
2018-03-08T08:20:56.344Z,18.33
2018-03-08T08:23:23.789Z,20.20
2018-03-08T08:25:51.269Z,19.67
2018-03-08T08:28:18.710Z,18.63
2018-03-08T08:30:46.288Z,21.50
2018-03-08T08:33:13.720Z,20.37
2018-03-08T08:35:46.785Z,19.10
2018-03-08T08:38:15.869Z,21.17
2018-03-08T08:40:43.350Z,17.47
2018-03-08T08:43:10.857Z,16.80
2018-03-08T08:45:38.272Z,18.13
2018-03-08T08:48:05.729Z,16.80
2018-03-08T08:50:33.217Z,15.27
2018-03-08T08:53:00.661Z,15.40
2018-03-08T08:55:28.103Z,17.47
2018-03-08T08:57:55.541Z,14.77
2018-03-08T09:00:23.222Z,17.10
2018-03-08T09:02:50.664Z,16.97
2018-03-08T09:05:18.108Z,17.03
2018-03-08T09:07:45.574Z,16.20
2018-03-08T09:10:13.037Z,14.07
2018-03-08T09:12:40.708Z,14.70
2018-03-08T09:15:08.160Z,13.43
2018-03-08T09:17:35.693Z,16.97
2018-03-08T09:20:03.165Z,17.13
2018-03-08T09:22:32.273Z,14.93
2018-03-08T09:24:59.703Z,15.37
2018-03-08T09:27:27.445Z,16.67
2018-03-08T09:29:54.879Z,14.50
2018-03-08T09:32:22.284Z,14.77
2018-03-08T09:34:49.717Z,14.63
2018-03-08T09:37:17.277Z,14.87
2018-03-08T09:39:44.738Z,13.23
2018-03-08T09:42:12.193Z,12.63
2018-03-08T09:44:40.081Z,15.47
2018-03-08T09:47:07.569Z,15.00
2018-03-08T09:49:34.970Z,14.10
2018-03-08T09:52:02.387Z,13.73
2018-03-08T09:54:29.849Z,13.33
2018-03-08T09:56:57.261Z,14.13
2018-03-08T09:59:24.757Z,12.60
2018-03-08T10:01:52.343Z,13.27
2018-03-08T10:04:19.780Z,14.80
2018-03-08T10:06:47.237Z,12.40
2018-03-08T10:09:14.830Z,11.53
2018-03-08T10:11:42.407Z,13.13
2018-03-08T10:14:09.885Z,14.23
2018-03-08T10:16:37.294Z,13.57
2018-03-08T10:19:04.897Z,13.03
2018-03-08T10:21:44.964Z,15.23
2018-03-08T10:24:00.064Z,11.63
2018-03-08T10:26:27.561Z,11.77
2018-03-08T10:28:58.677Z,11.80
2018-03-08T10:31:26.220Z,12.70
2018-03-08T10:33:53.739Z,12.10
2018-03-08T10:36:21.149Z,11.80
2018-03-08T10:38:48.567Z,12.23
2018-03-08T10:41:16.085Z,12.20
2018-03-08T10:43:43.512Z,11.00
2018-03-08T10:46:11.007Z,12.40
2018-03-08T10:48:38.486Z,11.53
2018-03-08T10:51:11.375Z,11.20
2018-03-08T10:53:42.436Z,11.10
2018-03-08T10:56:10.002Z,12.10
2018-03-08T10:58:37.412Z,11.70
2018-03-08T11:01:04.816Z,11.10
2018-03-08T11:03:47.891Z,10.63
2018-03-08T11:06:20.279Z,11.20
2018-03-08T11:08:47.771Z,9.97
2018-03-08T11:11:15.210Z,10.43
2018-03-08T11:13:44.126Z,9.97
2018-03-08T11:16:11.555Z,10.27
2018-03-08T11:18:39.126Z,10.00
2018-03-08T11:21:06.638Z,10.57
2018-03-08T11:26:20.816Z,10.10
2018-03-08T11:28:48.281Z,10.57
2018-03-08T11:31:15.693Z,9.83
2018-03-08T11:33:43.219Z,11.47
2018-03-08T11:36:10.620Z,10.20
2018-03-08T11:38:38.138Z,10.03
2018-03-08T11:41:05.604Z,10.37
2018-03-08T11:43:33.144Z,9.80
2018-03-08T11:46:00.694Z,10.43
2018-03-08T11:48:28.172Z,10.63
2018-03-08T11:50:55.676Z,10.37
2018-03-08T11:53:23.228Z,10.53
2018-03-08T11:55:51.380Z,9.50
2018-03-08T11:58:18.806Z,10.20
2018-03-08T12:00:46.272Z,10.10
2018-03-08T12:03:13.694Z,9.93
2018-03-08T12:05:41.169Z,9.63
2018-03-08T12:08:08.584Z,10.50
2018-03-08T12:10:35.965Z,9.43
2018-03-08T12:13:03.453Z,10.27
2018-03-08T12:15:30.872Z,10.70
2018-03-08T12:18:01.006Z,10.17
2018-03-08T12:20:28.423Z,10.23
2018-03-08T12:22:56.016Z,9.43
2018-03-08T12:25:23.424Z,11.63
2018-03-08T12:27:50.910Z,10.43
2018-03-08T12:30:18.391Z,9.80
2018-03-08T12:32:45.791Z,11.60
2018-03-08T12:35:13.241Z,9.20
2018-03-08T12:37:40.690Z,10.13
2018-03-08T12:40:13.696Z,9.23
2018-03-08T12:42:41.093Z,8.70
2018-03-08T12:45:08.513Z,9.77
2018-03-08T12:47:36.018Z,10.03
2018-03-08T12:50:03.433Z,9.43
2018-03-08T12:52:30.869Z,10.30
2018-03-08T12:54:58.273Z,10.10
2018-03-08T12:57:25.738Z,9.63
2018-03-08T12:59:53.130Z,11.00
2018-03-08T13:02:20.659Z,10.17
2018-03-08T13:04:48.120Z,10.27
2018-03-08T13:07:15.701Z,9.77
2018-03-08T13:09:43.121Z,9.33
2018-03-08T13:12:10.589Z,9.57
2018-03-08T13:14:37.976Z,8.73
2018-03-08T13:17:05.440Z,10.97
2018-03-08T13:19:33.066Z,9.00
2018-03-08T13:22:00.549Z,9.50
2018-03-08T13:24:31.509Z,8.70
2018-03-08T13:26:59.004Z,8.97
2018-03-08T13:29:26.582Z,9.07
2018-03-08T13:31:54.098Z,10.20
2018-03-08T13:34:21.602Z,9.30
2018-03-08T13:36:49.013Z,9.73
2018-03-08T13:39:16.470Z,8.87
2018-03-08T13:41:43.935Z,8.30
2018-03-08T13:44:11.377Z,10.17
2018-03-08T13:46:44.624Z,9.03
2018-03-08T13:49:18.059Z,10.07
2018-03-08T13:51:45.509Z,8.63
2018-03-08T13:54:12.900Z,8.93
2018-03-08T13:56:40.347Z,8.77
2018-03-08T13:59:07.783Z,10.47
2018-03-08T14:01:35.411Z,10.13
2018-03-08T14:04:02.916Z,9.10
2018-03-08T14:06:30.366Z,10.30
2018-03-08T14:08:57.896Z,10.17
2018-03-08T14:11:25.521Z,9.57
2018-03-08T14:13:52.989Z,9.77
2018-03-08T14:16:20.397Z,8.80
2018-03-08T14:18:47.997Z,10.70
2018-03-08T14:21:15.799Z,9.93
2018-03-08T14:23:43.322Z,9.20
2018-03-08T14:26:10.749Z,9.80
2018-03-08T14:28:38.168Z,11.23
2018-03-08T14:31:05.591Z,17.13
2018-03-08T14:33:33.017Z,32.47
2018-03-08T14:36:00.497Z,40.57
2018-03-08T14:38:27.959Z,19.67
2018-03-08T14:40:55.409Z,18.73
2018-03-08T14:43:22.842Z,23.33
2018-03-08T14:45:50.295Z,19.23
2018-03-08T14:48:17.761Z,13.73
2018-03-08T14:50:45.206Z,12.57
2018-03-08T14:53:18.131Z,12.30
2018-03-08T14:55:47.197Z,11.07
2018-03-08T14:58:14.689Z,12.10
2018-03-08T15:00:42.131Z,11.60
2018-03-08T15:03:09.609Z,11.23
2018-03-08T15:05:37.086Z,11.13
2018-03-08T15:08:04.573Z,12.47
2018-03-08T15:10:32.110Z,11.53
2018-03-08T15:12:59.517Z,13.23
2018-03-08T15:15:27.969Z,9.93
2018-03-08T15:17:55.865Z,10.43
2018-03-08T15:20:23.401Z,10.60
2018-03-08T15:22:50.885Z,10.87
2018-03-08T15:25:18.285Z,10.00
2018-03-08T15:27:45.689Z,11.57
2018-03-08T15:30:13.145Z,9.30
2018-03-08T15:32:40.596Z,9.73
2018-03-08T15:35:07.995Z,9.13
2018-03-08T15:37:35.583Z,9.83
2018-03-08T15:40:04.640Z,8.37
2018-03-08T15:42:32.172Z,10.23
2018-03-08T15:44:59.607Z,9.40
2018-03-08T15:47:27.144Z,9.33
2018-03-08T15:49:54.555Z,9.97
2018-03-08T15:52:22.004Z,9.80
2018-03-08T15:54:49.465Z,9.00
2018-03-08T15:57:16.876Z,9.47
2018-03-08T15:59:44.277Z,9.33
2018-03-08T16:02:22.944Z,9.03
2018-03-08T16:04:55.987Z,9.93
2018-03-08T16:07:42.393Z,9.50
2018-03-08T16:10:11.724Z,10.30
2018-03-08T16:12:39.139Z,9.80
2018-03-08T16:15:06.546Z,10.53
2018-03-08T16:17:33.998Z,10.67
2018-03-08T16:20:01.386Z,11.07
2018-03-08T16:22:28.997Z,11.30
2018-03-08T16:24:59.974Z,14.73
2018-03-08T16:27:27.404Z,37.60
2018-03-08T16:29:54.958Z,13.87
2018-03-08T16:32:22.441Z,10.03
2018-03-08T16:34:49.900Z,14.67
2018-03-08T16:37:17.348Z,11.73
2018-03-08T16:39:44.769Z,10.90
2018-03-08T16:42:12.210Z,9.03
2018-03-08T16:44:39.628Z,10.50
2018-03-08T16:47:07.058Z,9.93
2018-03-08T16:49:34.574Z,9.80
2018-03-08T16:52:02.083Z,15.00
2018-03-08T16:54:29.520Z,10.10
2018-03-08T16:56:56.938Z,16.43
2018-03-08T16:59:24.410Z,11.63
2018-03-08T17:01:51.887Z,9.33
2018-03-08T17:04:19.456Z,10.73
2018-03-08T17:06:46.881Z,11.80
2018-03-08T17:09:19.085Z,11.43
2018-03-08T17:11:46.641Z,11.50
2018-03-08T17:14:14.119Z,11.47
2018-03-08T17:16:41.538Z,10.47
2018-03-08T17:19:08.958Z,11.57
2018-03-08T17:21:36.537Z,10.90
2018-03-08T17:24:03.976Z,10.87
2018-03-08T17:26:31.398Z,10.80
2018-03-08T17:28:58.856Z,11.20
2018-03-08T17:31:26.329Z,11.23
2018-03-08T17:33:53.853Z,11.67
2018-03-08T17:36:21.298Z,11.63
2018-03-08T17:38:48.753Z,10.60
2018-03-08T17:41:16.220Z,10.87
2018-03-08T17:43:43.641Z,10.20
2018-03-08T17:46:11.033Z,10.97
2018-03-08T17:48:38.515Z,10.43
2018-03-08T17:51:05.987Z,10.80
2018-03-08T17:53:35.995Z,11.03
2018-03-08T17:56:03.412Z,10.97
2018-03-08T17:58:30.897Z,10.10
2018-03-08T18:00:58.374Z,10.27
2018-03-08T18:03:25.821Z,11.57
2018-03-08T18:05:53.401Z,9.97
2018-03-08T18:08:21.988Z,11.17
2018-03-08T18:10:50.311Z,10.23
2018-03-08T18:13:18.448Z,11.27
2018-03-08T18:15:50.445Z,10.37
2018-03-08T18:18:17.928Z,11.03
2018-03-08T18:20:46.009Z,10.70
2018-03-08T18:23:13.494Z,11.73
2018-03-08T18:25:40.970Z,12.00
2018-03-08T18:28:08.403Z,10.73
2018-03-08T18:30:35.880Z,10.60
2018-03-08T18:33:03.304Z,10.70
2018-03-08T18:35:30.729Z,12.23
2018-03-08T18:38:02.669Z,11.87
2018-03-08T18:40:30.154Z,11.30
2018-03-08T18:42:57.605Z,10.27
2018-03-08T18:45:25.596Z,11.40
2018-03-08T18:47:53.897Z,10.83
2018-03-08T18:50:21.333Z,11.20
2018-03-08T18:52:48.781Z,10.80
2018-03-08T18:55:16.214Z,10.93
2018-03-08T18:57:43.688Z,10.70
2018-03-08T19:00:17.687Z,11.77
2018-03-08T19:02:45.185Z,10.53
2018-03-08T19:05:15.077Z,10.50
2018-03-08T19:07:42.537Z,11.80
2018-03-08T19:10:13.076Z,11.80
2018-03-08T19:12:40.728Z,13.55
2018-03-08T19:15:08.482Z,12.63
2018-03-08T19:17:37.009Z,12.20
2018-03-08T19:20:04.868Z,12.87
2018-03-08T19:22:32.410Z,12.67
2018-03-08T19:25:01.141Z,12.13
2018-03-08T19:27:28.619Z,13.63
2018-03-08T19:29:56.808Z,13.10
2018-03-08T19:32:24.365Z,14.40
2018-03-08T19:34:51.961Z,13.97
2018-03-08T19:37:19.545Z,14.23
2018-03-08T19:39:47.325Z,14.10
2018-03-08T19:42:14.817Z,14.90
2018-03-08T19:44:46.776Z,14.73
2018-03-08T19:47:14.238Z,15.97
2018-03-08T19:49:41.700Z,16.43
2018-03-08T19:52:09.169Z,15.73
2018-03-08T19:54:36.641Z,16.90
2018-03-08T19:57:04.102Z,18.20
2018-03-08T20:11:05.190Z,16.33
2018-03-08T20:13:35.100Z,16.07
2018-03-08T20:16:04.189Z,16.63
2018-03-08T20:18:31.709Z,15.83
2018-03-08T20:20:59.342Z,16.60
2018-03-08T20:23:26.850Z,17.00
2018-03-08T20:25:54.944Z,16.43
2018-03-08T20:28:22.433Z,16.87
2018-03-08T20:30:49.832Z,16.20
2018-03-08T20:33:17.333Z,17.57
2018-03-08T20:35:46.540Z,15.50
2018-03-08T20:38:14.002Z,17.03
2018-03-08T20:40:41.495Z,17.83
2018-03-08T20:43:12.203Z,17.97
2018-03-08T20:45:39.666Z,17.10
2018-03-08T20:48:07.166Z,17.70
2018-03-08T20:50:34.617Z,18.93
2018-03-08T20:53:02.101Z,18.90
2018-03-08T20:55:29.508Z,17.83
2018-03-08T20:57:59.689Z,19.50
2018-03-08T21:00:27.136Z,18.40
2018-03-08T21:02:54.589Z,17.57
2018-03-08T21:08:02.869Z,19.47
2018-03-08T21:10:30.561Z,19.07
2018-03-08T21:12:58.072Z,19.37
2018-03-08T21:15:25.966Z,19.13
2018-03-08T21:17:53.617Z,20.43
2018-03-08T21:20:28.068Z,20.33
2018-03-08T21:22:55.506Z,19.87
2018-03-08T21:25:23.008Z,18.50
2018-03-08T21:27:50.756Z,21.27
2018-03-08T21:30:18.216Z,19.83
2018-03-08T21:32:51.312Z,20.20
2018-03-08T21:35:18.764Z,20.17
2018-03-08T21:37:46.409Z,19.30
2018-03-08T21:40:13.839Z,21.07
2018-03-08T21:42:41.421Z,19.77
2018-03-08T21:45:08.918Z,20.07
2018-03-08T21:47:36.340Z,23.20
2018-03-08T21:50:03.812Z,20.33
2018-03-08T21:52:31.478Z,22.40
2018-03-08T21:54:58.905Z,21.20
2018-03-08T21:57:26.364Z,20.30
2018-03-08T21:59:53.839Z,20.37
2018-03-08T22:02:21.292Z,20.90
2018-03-08T22:04:48.784Z,21.87
2018-03-08T22:07:16.270Z,21.63
2018-03-08T22:09:43.920Z,21.00
2018-03-08T22:12:11.602Z,20.13
2018-03-08T22:14:39.120Z,22.37
2018-03-08T22:17:09.002Z,22.43
2018-03-08T22:19:36.498Z,22.00
2018-03-08T22:22:04.005Z,24.30
2018-03-08T22:24:31.598Z,24.90
2018-03-08T22:26:59.061Z,25.07
2018-03-08T22:29:27.372Z,23.53
2018-03-08T22:31:54.876Z,24.90
2018-03-08T22:34:22.341Z,25.63
2018-03-08T22:36:49.800Z,24.50
2018-03-08T22:39:17.803Z,29.40
2018-03-08T22:41:45.289Z,27.77
2018-03-08T22:44:12.786Z,27.63
2018-03-08T22:46:40.260Z,29.27
2018-03-08T22:49:07.899Z,28.50
2018-03-08T22:51:35.388Z,31.97
2018-03-08T22:54:02.888Z,27.23
2018-03-08T22:56:30.394Z,35.50
2018-03-08T22:58:57.861Z,40.83
2018-03-08T23:01:44.032Z,31.40
2018-03-08T23:04:11.521Z,46.77
2018-03-08T23:06:38.988Z,47.80
2018-03-08T23:09:06.595Z,38.87
2018-03-08T23:11:34.057Z,47.63
2018-03-08T23:14:01.469Z,58.63
2018-03-08T23:16:28.973Z,68.70
2018-03-08T23:18:56.471Z,54.03
2018-03-08T23:21:23.944Z,47.27
2018-03-08T23:23:51.715Z,41.20
2018-03-08T23:26:19.172Z,65.33
2018-03-08T23:28:46.665Z,45.20
2018-03-08T23:31:14.282Z,86.47
2018-03-08T23:33:41.932Z,48.73
2018-03-08T23:36:09.395Z,49.33
2018-03-08T23:38:36.885Z,95.07
2018-03-08T23:41:04.379Z,71.50
2018-03-08T23:43:34.448Z,49.03
2018-03-08T23:46:01.886Z,42.80
2018-03-08T23:48:29.365Z,50.53
2018-03-08T23:50:56.879Z,64.70
2018-03-08T23:53:24.316Z,46.77
2018-03-08T23:55:51.797Z,94.77
2018-03-08T23:58:19.266Z,86.07
